»·PEaware :: N1718G KLAX-KSAN

N1718G :: KLAX-KSAN

FLIGHT INFORMATION

Flight Status: Arrived
Operator: Privately registered:
United States
More flights under this callsign
Pilot: Spencer M. (27733)
Aircraft: CESSNA 172 SKYHAWK
(C172)
More flights by this aircraft type
Origin: KLAX Los Angeles Intl
United States
Destination: KSAN San Diego Intl-Lindbergh
United States
More flights between these airports :: More routes between these airports
Route: KLAX-KSAN
File this flight plan on PilotEdge
Remarks:
Altitude:
(Current/Filed)
5,500ft
Speed:
(Current/Filed)
120kts
Departed: 12-Feb-20 11:49 AM
Arrived: 12-Feb-20 12:46 PM
Distance/Time
Traveled:
95nm/0:57
Distance/Time
To Go:
Arrived

Flight Plot

Page will automatically refresh every two minutes.

Flight plan parsing failed; only flown route is shown


Map Options




Map Legend


Flown Route
Filed Route
Departure Airport
Arrival Airport
Navaid (VOR, NDB)
Fix

Horizontal Profiles

Position Reports

Time Latitude Longitude Heading Altitude Ground
Speed
12-Feb-20 11:33 33.934138 -118.394988 176 105ft 0kts
12-Feb-20 11:34 33.934138 -118.394988 176 105ft 0kts
12-Feb-20 11:35 33.934138 -118.394988 176 105ft 0kts
12-Feb-20 11:36 33.934138 -118.394988 176 105ft 0kts
12-Feb-20 11:37 33.934138 -118.394988 176 105ft 0kts
12-Feb-20 11:38 33.934138 -118.394988 176 105ft 0kts
12-Feb-20 11:39 33.934138 -118.394988 176 105ft 0kts
12-Feb-20 11:40 33.934138 -118.394988 176 105ft 0kts
12-Feb-20 11:41 33.934268 -118.394016 57 103ft 4kts
12-Feb-20 11:42 33.934967 -118.393103 80 102ft 15kts
12-Feb-20 11:43 33.935556 -118.388438 81 99ft 17kts
12-Feb-20 11:44 33.936136 -118.383072 58 96ft 5kts
12-Feb-20 11:46 33.936382 -118.382656 358 96ft 0kts
12-Feb-20 11:47 33.936382 -118.382656 358 96ft 0kts
12-Feb-20 11:48 33.937259 -118.383662 267 96ft 19kts
12-Feb-20 11:49 33.934459 -118.411825 261 640ft 108kts
12-Feb-20 11:50 33.929003 -118.449900 265 1224ft 117kts
12-Feb-20 11:51 33.927780 -118.489539 270 1781ft 118kts
12-Feb-20 11:52 33.926596 -118.529343 266 2289ft 119kts
12-Feb-20 11:53 33.908433 -118.547931 142 2780ft 118kts
12-Feb-20 11:54 33.882175 -118.523307 142 2995ft 120kts
12-Feb-20 11:55 33.856759 -118.499304 142 2992ft 116kts
12-Feb-20 11:56 33.831170 -118.475122 142 2993ft 118kts
12-Feb-20 11:57 33.804677 -118.448607 132 2998ft 126kts
12-Feb-20 11:58 33.783297 -118.415207 125 2998ft 124kts
12-Feb-20 11:59 33.763039 -118.381406 125 2997ft 124kts
12-Feb-20 12:00 33.743050 -118.348053 125 3120ft 116kts
12-Feb-20 12:01 33.724953 -118.317796 125 3798ft 109kts
12-Feb-20 12:02 33.708931 -118.290995 125 4575ft 86kts
12-Feb-20 12:03 33.694186 -118.266254 125 5388ft 97kts
12-Feb-20 12:04 33.675338 -118.234757 125 5393ft 130kts
12-Feb-20 12:05 33.655154 -118.201103 125 5337ft 122kts
12-Feb-20 12:05 33.638459 -118.173258 125 5338ft 123kts
12-Feb-20 12:07 33.615018 -118.134170 125 5338ft 123kts
12-Feb-20 12:07 33.598301 -118.106295 125 5338ft 123kts
12-Feb-20 12:08 33.578255 -118.072876 125 5338ft 123kts
12-Feb-20 12:09 33.556794 -118.040774 138 5337ft 123kts
12-Feb-20 12:10 33.534273 -118.009768 127 5337ft 123kts
12-Feb-20 12:11 33.513199 -117.977125 127 5337ft 123kts
12-Feb-20 12:12 33.492139 -117.944508 127 5337ft 123kts
12-Feb-20 12:13 33.471076 -117.911889 127 5337ft 123kts
12-Feb-20 12:14 33.450039 -117.879316 127 5337ft 123kts
12-Feb-20 12:15 33.424215 -117.852590 147 5335ft 123kts
12-Feb-20 12:16 33.395043 -117.830585 147 5335ft 123kts
12-Feb-20 12:17 33.365947 -117.808663 147 5335ft 123kts
12-Feb-20 12:18 33.336857 -117.786676 145 5335ft 123kts
12-Feb-20 12:19 33.309310 -117.762078 141 5335ft 123kts
12-Feb-20 12:20 33.282755 -117.735841 139 5335ft 123kts
12-Feb-20 12:21 33.256558 -117.709342 139 5335ft 123kts
12-Feb-20 12:22 33.230085 -117.682572 139 5298ft 124kts
12-Feb-20 12:23 33.203865 -117.656060 139 5310ft 123kts
12-Feb-20 12:24 33.177564 -117.629472 139 5310ft 123kts
12-Feb-20 12:25 33.151365 -117.602996 139 5308ft 120kts
12-Feb-20 12:26 33.126226 -117.577598 139 5306ft 117kts
12-Feb-20 12:27 33.101357 -117.552475 139 5306ft 116kts
12-Feb-20 12:28 33.082079 -117.525608 127 5122ft 109kts
12-Feb-20 12:29 33.062943 -117.498036 133 4330ft 114kts
12-Feb-20 12:30 33.038164 -117.471803 136 3953ft 123kts
12-Feb-20 12:31 33.020173 -117.436962 114 3252ft 124kts
12-Feb-20 12:32 33.007475 -117.403995 114 3202ft 96kts
12-Feb-20 12:33 32.995117 -117.374927 122 3204ft 99kts
12-Feb-20 12:34 32.976716 -117.346540 131 3311ft 121kts
12-Feb-20 12:35 32.952034 -117.317762 141 3247ft 124kts
12-Feb-20 12:36 32.921914 -117.296653 153 2825ft 124kts
12-Feb-20 12:37 32.889634 -117.280472 158 2375ft 125kts
12-Feb-20 12:38 32.858527 -117.263523 150 1931ft 118kts
12-Feb-20 12:39 32.831477 -117.243599 146 2009ft 116kts
12-Feb-20 12:40 32.801806 -117.224780 152 1856ft 123kts
12-Feb-20 12:41 32.771118 -117.208162 164 1345ft 111kts
12-Feb-20 12:42 32.745626 -117.194109 111 803ft 102kts
12-Feb-20 12:43 32.740570 -117.169759 121 589ft 63kts
12-Feb-20 12:44 32.730227 -117.176413 294 173ft 61kts
12-Feb-20 12:45 32.732706 -117.188413 189 16ft 9kts
12-Feb-20 12:46 32.731604 -117.190922 201 14ft 21kts

Navigation Log

Ident Type
Flight plan parsing failed, navigation log unavailable